Terminal Aerodrome Forecast
Issued by NWS

Home | Current Version | Previous Version | Graphics & Text | Print | Product List | Glossary On
Versions: 1 2 3 4 5 6 7 8 9 10 11 12 13 14 15 16 17 18 19 20 21 22 23 24 25 26 27 28
000
FTUS43 KABR 171100
TAFATY
TAF
KATY 171123Z 1712/1812 VRB03KT P6SM SKC
     FM172000 VRB04KT P6SM BKN250
     FM180600 13006KT P6SM OVC100=

USA.gov is the U.S. government's official web portal to all federal, state and local government web resources and services.